Time;durP1;ratioP1;P1;durP2;ratioP2;P2;SDS_P1;SDS_P2;PMS_P1;PMS_P2;Temp;Humidity;BMP_temperature;BMP_pressure;BME280_temperature;BME280_humidity;BME280_pressure;Samples;Min_cycle;Max_cycle;Signal;HPM_P1;HPM_P2
2024/02/20 00:00:09;;;;;;;11.55;3.05;;;;;;;5.23;100.00;102928.03;6085342;19;20471;-73
2024/02/20 00:02:15;;;;;;;13.07;3.03;;;;;;;5.20;100.00;102932.34;6083934;19;20010;-73
2024/02/20 00:04:23;;;;;;;14.68;2.67;;;;;;;5.21;100.00;102928.84;6081060;19;20551;-73
2024/02/20 00:06:29;;;;;;;10.27;3.42;;;;;;;5.30;100.00;102928.16;6082859;19;20007;-73
2024/02/20 00:08:34;;;;;;;13.57;3.20;;;;;;;5.31;100.00;102937.72;6084512;19;20006;-73
2024/02/20 00:10:36;;;;;;;6.57;3.28;;;;;;;5.38;100.00;102923.91;6083880;19;20208;-73
2024/02/20 00:12:42;;;;;;;14.20;2.63;;;;;;;5.43;100.00;102933.56;6083058;19;20045;-73
2024/02/20 00:14:47;;;;;;;18.90;3.30;;;;;;;5.47;100.00;102924.91;6083841;19;20053;-74
2024/02/20 00:16:52;;;;;;;12.90;3.05;;;;;;;5.46;100.00;102925.78;6082803;19;20015;-73
2024/02/20 00:18:58;;;;;;;14.48;2.88;;;;;;;5.46;100.00;102922.28;6083189;19;20122;-73
2024/02/20 00:21:06;;;;;;;11.60;3.08;;;;;;;5.41;100.00;102924.81;6084536;19;20014;-73
2024/02/20 00:23:13;;;;;;;13.05;2.78;;;;;;;5.49;100.00;102917.13;6084378;19;20015;-72
2024/02/20 00:25:20;;;;;;;10.35;2.95;;;;;;;5.49;100.00;102927.53;6084159;19;20021;-73
2024/02/20 00:27:26;;;;;;;19.15;4.53;;;;;;;5.53;100.00;102928.44;6082808;19;20453;-74
2024/02/20 00:29:29;;;;;;;12.55;3.85;;;;;;;5.58;100.00;102927.69;6088777;19;20115;-73
2024/02/20 00:31:36;;;;;;;10.50;2.95;;;;;;;5.57;100.00;102928.53;6086939;19;20034;-74
2024/02/20 00:33:41;;;;;;;15.50;3.30;;;;;;;5.60;100.00;102925.94;6083023;19;20003;-72
2024/02/20 00:35:46;;;;;;;15.65;4.28;;;;;;;5.64;100.00;102927.75;6089127;19;20010;-72
2024/02/20 00:37:56;;;;;;;11.68;4.35;;;;;;;5.71;100.00;102926.09;6087727;19;20567;-73
2024/02/20 00:40:01;;;;;;;11.73;3.40;;;;;;;5.72;100.00;102933.94;6088511;19;20024;-73
2024/02/20 00:42:07;;;;;;;12.07;3.55;;;;;;;5.75;100.00;102927.03;6089429;19;20011;-74
2024/02/20 00:44:13;;;;;;;9.35;2.80;;;;;;;5.80;100.00;102928.84;6089479;19;20007;-73
2024/02/20 00:46:22;;;;;;;12.40;3.33;;;;;;;5.83;100.00;102933.22;6089234;19;20023;-73
2024/02/20 00:48:27;;;;;;;12.90;2.97;;;;;;;5.77;100.00;102939.25;6089049;19;20018;-73
2024/02/20 00:50:32;;;;;;;14.20;3.65;;;;;;;5.84;100.00;102933.22;6089883;19;20003;-73
2024/02/20 00:52:35;;;;;;;14.40;4.20;;;;;;;5.83;100.00;102936.69;6085044;19;20015;-73
2024/02/20 00:54:43;;;;;;;10.27;3.33;;;;;;;5.89;100.00;102931.56;6088282;19;20019;-73
2024/02/20 00:56:48;;;;;;;11.88;2.80;;;;;;;5.95;100.00;102922.97;6088783;19;20031;-73
2024/02/20 00:58:53;;;;;;;10.20;2.95;;;;;;;5.94;100.00;102929.03;6088426;19;20006;-74
2024/02/20 01:00:58;;;;;;;25.10;3.58;;;;;;;5.94;100.00;102929.03;6086996;19;20003;-73
2024/02/20 01:03:03;;;;;;;13.38;3.05;;;;;;;5.93;100.00;102927.25;6088352;19;20010;-73
2024/02/20 01:05:10;;;;;;;12.63;3.15;;;;;;;6.07;100.00;102928.31;6087504;19;20814;-73
2024/02/20 01:07:14;;;;;;;6.88;2.75;;;;;;;6.01;100.00;102935.22;6088713;19;20764;-73
2024/02/20 01:09:19;;;;;;;18.88;2.65;;;;;;;6.12;100.00;102942.31;6086625;19;20070;-73
2024/02/20 01:11:27;;;;;;;10.82;2.88;;;;;;;6.18;100.00;102935.41;6087925;19;20025;-73
2024/02/20 01:13:32;;;;;;;15.30;3.35;;;;;;;6.18;100.00;102935.41;6085325;19;20467;-73
2024/02/20 01:15:37;;;;;;;10.30;3.08;;;;;;;6.18;100.00;102935.41;6087340;19;20900;-73
2024/02/20 01:17:42;;;;;;;18.08;3.25;;;;;;;6.27;100.00;102935.53;6079198;19;20726;-72
2024/02/20 01:19:47;;;;;;;8.70;2.80;;;;;;;6.33;100.00;102935.59;6088174;19;20364;-74
2024/02/20 01:21:52;;;;;;;11.73;3.45;;;;;;;6.29;100.00;102923.34;6082764;19;20074;-73
2024/02/20 01:23:57;;;;;;;14.68;3.25;;;;;;;6.42;100.00;102921.75;6082339;19;20356;-73
2024/02/20 01:26:02;;;;;;;8.30;3.60;;;;;;;6.36;100.00;102926.03;6087456;19;20091;-73
2024/02/20 01:28:11;;;;;;;11.02;3.22;;;;;;;6.35;100.00;102923.44;6086305;19;20340;-74
2024/02/20 01:30:16;;;;;;;21.17;4.20;;;;;;;6.40;100.00;102916.53;6087681;19;20625;-73
2024/02/20 01:32:23;;;;;;;13.32;3.60;;;;;;;6.47;100.00;102933.09;6085871;19;20719;-73
2024/02/20 01:34:25;;;;;;;14.65;3.60;;;;;;;6.50;100.00;102930.53;6086509;19;20014;-74
2024/02/20 01:36:32;;;;;;;22.63;4.82;;;;;;;6.56;100.00;102928.88;6087613;19;20674;-74
2024/02/20 01:38:36;;;;;;;11.73;2.72;;;;;;;6.63;100.00;102924.56;6086214;19;20015;-75
2024/02/20 01:40:41;;;;;;;19.25;4.10;;;;;;;6.68;100.00;102924.59;6086655;19;20022;-74
2024/02/20 01:42:54;;;;;;;21.80;3.50;;;;;;;6.74;100.00;102922.94;6087174;19;19998;-73
2024/02/20 01:45:02;;;;;;;15.00;3.97;;;;;;;6.72;100.00;102913.34;6085808;19;20006;-73
2024/02/20 01:47:08;;;;;;;10.98;3.90;;;;;;;6.72;100.00;102919.44;6086837;19;20011;-74
2024/02/20 01:49:13;;;;;;;13.40;3.65;;;;;;;6.78;100.00;102922.09;6086809;19;20006;-73
2024/02/20 01:51:20;;;;;;;17.13;4.43;;;;;;;6.78;100.00;102909.03;6088191;19;20013;-73
2024/02/20 01:53:25;;;;;;;17.70;3.72;;;;;;;6.81;100.00;102910.78;6085483;19;20014;-73
2024/02/20 01:55:31;;;;;;;11.93;3.15;;;;;;;6.82;100.00;102910.81;6086247;19;20014;-74
2024/02/20 01:57:37;;;;;;;13.32;3.03;;;;;;;6.75;100.00;102906.38;6087569;19;20469;-73
2024/02/20 01:59:42;;;;;;;13.52;3.40;;;;;;;6.78;100.00;102916.00;6087033;19;20019;-74
2024/02/20 02:01:50;;;;;;;12.13;3.22;;;;;;;6.73;100.00;102910.72;6077556;19;19999;-74
2024/02/20 02:03:56;;;;;;;20.70;3.92;;;;;;;6.73;100.00;102909.84;6086009;19;20022;-74
2024/02/20 02:06:01;;;;;;;15.02;2.92;;;;;;;6.64;100.00;102909.78;6082550;19;20039;-73
2024/02/20 02:08:09;;;;;;;23.35;2.88;;;;;;;6.55;100.00;102906.19;6084641;19;20030;-73
2024/02/20 02:10:11;;;;;;;13.88;2.90;;;;;;;6.48;100.00;102914.84;6085225;19;20070;-73
2024/02/20 02:12:16;;;;;;;10.23;2.75;;;;;;;6.45;100.00;102909.59;6085065;19;20006;-75
2024/02/20 02:14:21;;;;;;;13.02;3.22;;;;;;;6.44;100.00;102907.84;6083218;19;20018;-73
2024/02/20 02:16:26;;;;;;;10.85;3.45;;;;;;;6.41;100.00;102905.19;6081884;19;20043;-75
2024/02/20 02:18:34;;;;;;;12.18;2.72;;;;;;;6.43;100.00;102903.50;6084250;19;20010;-74
2024/02/20 02:20:39;;;;;;;7.80;3.42;;;;;;;6.47;100.00;102907.84;6085136;19;20003;-73
2024/02/20 02:22:44;;;;;;;13.07;3.15;;;;;;;6.40;100.00;102911.28;6084995;19;20021;-74
2024/02/20 02:24:46;;;;;;;16.92;3.30;;;;;;;6.35;100.00;102910.38;6082695;19;20003;-74
2024/02/20 02:26:57;;;;;;;14.63;2.75;;;;;;;6.31;100.00;102917.28;6080950;19;20039;-74
2024/02/20 02:29:02;;;;;;;14.43;3.20;;;;;;;6.24;100.00;102918.09;6084259;19;20567;-74
2024/02/20 02:31:08;;;;;;;16.27;3.92;;;;;;;6.22;100.00;102921.53;6083255;19;20006;-74
2024/02/20 02:33:13;;;;;;;11.70;3.15;;;;;;;6.17;100.00;102926.72;6080522;19;20383;-73
2024/02/20 02:35:16;;;;;;;8.35;2.78;;;;;;;6.14;100.00;102919.72;6082890;19;20532;-74
2024/02/20 02:37:21;;;;;;;;;;;;;;;6.11;100.00;102918.81;6083234;19;20208;-73
2024/02/20 02:39:26;;;;;;;11.65;3.33;;;;;;;6.07;100.00;102917.88;6082940;19;19922;-74
2024/02/20 02:41:33;;;;;;;11.63;2.88;;;;;;;6.03;100.00;102916.13;6083551;19;20021;-74
2024/02/20 02:43:40;;;;;;;8.02;2.55;;;;;;;6.01;100.00;102911.72;6084580;19;20520;-74
2024/02/20 02:45:45;;;;;;;15.25;2.97;;;;;;;6.05;100.00;102916.13;6085053;19;20014;-74
2024/02/20 02:47:50;;;;;;;13.45;3.05;;;;;;;6.03;100.00;102917.81;6085777;19;20352;-73
2024/02/20 02:49:55;;;;;;;10.48;3.90;;;;;;;6.03;100.00;102918.72;6081442;19;20007;-73
2024/02/20 02:52:02;;;;;;;6.65;2.85;;;;;;;6.01;100.00;102922.19;6083886;19;20043;-73
2024/02/20 02:54:07;;;;;;;12.07;3.85;;;;;;;6.01;100.00;102916.97;6079682;19;20011;-71
2024/02/20 02:56:10;;;;;;;13.82;3.35;;;;;;;5.99;100.00;102913.44;6082630;19;20015;-74
2024/02/20 02:58:15;;;;;;;13.48;3.85;;;;;;;5.98;100.00;102917.78;6083096;19;20127;-73
2024/02/20 03:00:23;;;;;;;7.68;2.47;;;;;;;6.01;100.00;102923.03;6084825;19;20135;-74
2024/02/20 03:02:28;;;;;;;12.35;3.85;;;;;;;6.03;100.00;102920.44;6083077;19;20018;-74
2024/02/20 03:04:31;;;;;;;13.48;3.30;;;;;;;6.02;100.00;102922.16;6086777;19;20122;-71
2024/02/20 03:06:40;;;;;;;12.00;3.72;;;;;;;6.02;100.00;102924.78;6083402;19;20022;-71
2024/02/20 03:08:45;;;;;;;13.73;3.78;;;;;;;6.04;100.00;102916.97;6084342;19;20018;-71
2024/02/20 03:10:48;;;;;;;10.48;3.55;;;;;;;6.02;100.00;102919.56;6082275;19;20034;-71
2024/02/20 03:12:55;;;;;;;15.23;3.90;;;;;;;6.10;100.00;102917.03;6085128;19;20018;-71
2024/02/20 03:15:01;;;;;;;12.52;3.17;;;;;;;6.14;100.00;102913.63;6085705;19;20530;-73
2024/02/20 03:17:09;;;;;;;12.60;3.88;;;;;;;6.17;100.00;102924.09;6084551;19;20013;-73
2024/02/20 03:19:14;;;;;;;16.75;3.95;;;;;;;6.19;100.00;102911.94;6085158;19;20003;-74
2024/02/20 03:21:20;;;;;;;11.30;2.97;;;;;;;6.24;100.00;102914.59;6081461;19;20539;-73
2024/02/20 03:23:28;;;;;;;12.30;3.53;;;;;;;6.30;100.00;102910.31;6084559;19;20082;-73
2024/02/20 03:25:34;;;;;;;9.70;2.63;;;;;;;6.34;100.00;102908.59;6081813;19;20690;-74
2024/02/20 03:27:39;;;;;;;9.38;3.13;;;;;;;6.36;100.00;102899.91;6085109;19;20354;-73
2024/02/20 03:29:45;;;;;;;12.88;3.63;;;;;;;6.30;100.00;102906.84;6086062;19;20504;-71
2024/02/20 03:31:51;;;;;;;8.68;3.20;;;;;;;6.33;100.00;102893.81;6085932;19;20010;-72
2024/02/20 03:33:59;;;;;;;10.35;2.80;;;;;;;6.32;100.00;102894.69;6082450;19;20020;-71
2024/02/20 03:36:05;;;;;;;11.63;2.80;;;;;;;6.27;100.00;102892.00;6083682;19;20054;-72
2024/02/20 03:38:10;;;;;;;9.95;3.08;;;;;;;6.32;100.00;102897.28;6080379;19;20039;-71
2024/02/20 03:40:15;;;;;;;17.27;3.75;;;;;;;6.27;100.00;102896.38;6082213;19;20007;-71
2024/02/20 03:42:20;;;;;;;9.95;3.42;;;;;;;6.24;100.00;102891.97;6082211;19;20031;-72
2024/02/20 03:44:27;;;;;;;19.13;3.40;;;;;;;6.23;100.00;102887.59;6080577;19;20010;-72
2024/02/20 03:46:32;;;;;;;10.60;2.58;;;;;;;6.26;100.00;102887.63;6079210;19;20511;-71
2024/02/20 03:48:35;;;;;;;10.35;3.95;;;;;;;6.24;100.00;102885.84;6081343;19;20151;-71
2024/02/20 03:50:43;;;;;;;9.63;3.63;;;;;;;6.24;100.00;102881.53;6081948;19;20359;-71
2024/02/20 03:52:48;;;;;;;14.75;3.65;;;;;;;6.25;100.00;102882.41;6078332;19;20019;-71
2024/02/20 03:54:53;;;;;;;20.10;4.47;;;;;;;6.31;100.00;102883.34;6081388;19;20388;-72
2024/02/20 03:56:58;;;;;;;8.68;3.20;;;;;;;6.33;100.00;102883.38;6079818;19;20010;-72
2024/02/20 03:59:06;;;;;;;19.15;3.63;;;;;;;6.34;100.00;102885.09;6079493;19;20014;-72
2024/02/20 04:01:11;;;;;;;14.88;3.80;;;;;;;6.35;100.00;102879.03;6079201;19;20030;-71
2024/02/20 04:03:16;;;;;;;14.95;3.00;;;;;;;6.37;100.00;102875.59;6078240;19;20491;-71
2024/02/20 04:05:21;;;;;;;12.55;3.40;;;;;;;6.35;100.00;102873.81;6085539;19;20798;-71
2024/02/20 04:07:29;;;;;;;20.73;3.75;;;;;;;6.33;100.00;102878.13;6086616;19;20024;-70
2024/02/20 04:09:34;;;;;;;15.15;3.55;;;;;;;6.30;100.00;102876.38;6088018;19;20034;-71
2024/02/20 04:11:39;;;;;;;9.65;3.50;;;;;;;6.31;100.00;102874.63;6083587;19;20438;-71
2024/02/20 04:13:44;;;;;;;16.65;3.38;;;;;;;6.31;100.00;102872.00;6086347;19;20003;-71
2024/02/20 04:15:51;;;;;;;19.77;3.85;;;;;;;6.37;100.00;102872.06;6086971;19;20360;-71
2024/02/20 04:17:56;;;;;;;19.30;4.10;;;;;;;6.32;100.00;102864.22;6087983;19;20010;-71
2024/02/20 04:20:03;;;;;;;13.07;3.80;;;;;;;6.32;100.00;102865.97;6082900;19;20024;-71
2024/02/20 04:22:09;;;;;;;13.10;3.60;;;;;;;6.29;100.00;102863.28;6083269;19;20002;-71
2024/02/20 04:24:16;;;;;;;15.75;4.25;;;;;;;6.26;100.00;102866.75;6087866;19;20016;-71
2024/02/20 04:26:24;;;;;;;6.45;3.20;;;;;;;6.27;100.00;102873.72;6085563;19;20855;-71
2024/02/20 04:28:34;;;;;;;11.07;4.28;;;;;;;6.27;100.00;102871.13;6086913;19;20020;-71
2024/02/20 04:30:44;;;;;;;13.57;3.72;;;;;;;6.23;100.00;102874.53;6086907;19;20466;-71
2024/02/20 04:32:50;;;;;;;14.02;3.83;;;;;;;6.21;100.00;102878.00;6089779;19;20010;-71
2024/02/20 04:34:55;;;;;;;10.75;3.72;;;;;;;6.14;100.00;102883.16;6090259;19;20499;-72
2024/02/20 04:37:00;;;;;;;7.68;3.88;;;;;;;6.14;100.00;102877.09;6087772;19;20019;-71
2024/02/20 04:39:06;;;;;;;15.52;3.70;;;;;;;6.09;100.00;102882.25;6085962;19;20007;-72
2024/02/20 04:41:24;;;;;;;10.32;3.55;;;;;;;6.12;100.00;102879.66;6087459;19;20085;-72
2024/02/20 04:43:29;;;;;;;15.75;3.42;;;;;;;6.10;100.00;102886.59;6085717;19;20011;-72
2024/02/20 04:45:35;;;;;;;10.02;3.83;;;;;;;6.08;100.00;102871.78;6086615;19;20641;-71
2024/02/20 04:47:40;;;;;;;16.50;4.25;;;;;;;6.06;100.00;102883.97;6088081;19;20010;-71
2024/02/20 04:49:46;;;;;;;17.73;4.82;;;;;;;6.08;100.00;102893.56;6086432;19;20287;-71
2024/02/20 04:51:53;;;;;;;15.13;4.65;;;;;;;6.10;100.00;102891.81;6085254;19;20488;-71
2024/02/20 04:53:58;;;;;;;13.40;4.55;;;;;;;6.05;100.00;102888.28;6084125;19;20010;-71
2024/02/20 04:56:03;;;;;;;17.92;4.95;;;;;;;6.03;100.00;102890.00;6084784;19;20006;-72
2024/02/20 04:58:11;;;;;;;8.93;3.90;;;;;;;6.05;100.00;102896.09;6085578;19;20564;-71
2024/02/20 05:00:17;;;;;;;13.02;4.28;;;;;;;6.04;100.00;102898.72;6083228;19;20010;-71
2024/02/20 05:02:20;;;;;;;11.35;3.47;;;;;;;5.99;100.00;102895.19;6083106;19;20477;-71
2024/02/20 05:04:25;;;;;;;15.05;3.45;;;;;;;5.96;100.00;102896.00;6087106;19;20399;-72
2024/02/20 05:06:30;;;;;;;18.13;4.85;;;;;;;5.92;100.00;102883.75;6084512;19;20015;-71
2024/02/20 05:08:36;;;;;;;12.32;3.85;;;;;;;5.94;100.00;102888.16;6087478;19;20165;-72
2024/02/20 05:10:41;;;;;;;15.90;4.22;;;;;;;5.98;100.00;102878.66;6086946;19;20025;-71
2024/02/20 05:12:44;;;;;;;13.98;3.85;;;;;;;5.97;100.00;102878.63;6086356;19;20010;-71
2024/02/20 05:14:52;;;;;;;13.80;4.05;;;;;;;6.01;100.00;102876.06;6084273;19;19999;-72
2024/02/20 05:16:57;;;;;;;8.82;3.13;;;;;;;6.00;100.00;102876.03;6084536;19;20426;-71
2024/02/20 05:19:02;;;;;;;15.63;4.72;;;;;;;5.98;100.00;102873.44;6086085;19;20010;-71
2024/02/20 05:21:11;;;;;;;16.67;3.20;;;;;;;5.99;100.00;102871.69;6085033;19;20778;-71
2024/02/20 05:23:16;;;;;;;8.63;2.88;;;;;;;5.97;100.00;102874.25;6085269;19;20011;-71
2024/02/20 05:25:21;;;;;;;22.42;4.22;;;;;;;5.93;100.00;102867.25;6085178;19;20007;-71
2024/02/20 05:27:26;;;;;;;18.42;5.00;;;;;;;5.91;100.00;102855.91;6084817;19;20010;-71
2024/02/20 05:29:32;;;;;;;13.98;4.55;;;;;;;5.91;100.00;102855.91;6084102;19;20013;-71
2024/02/20 05:31:40;;;;;;;11.63;3.78;;;;;;;5.89;100.00;102853.25;6083984;19;20011;-72
2024/02/20 05:33:46;;;;;;;17.27;4.53;;;;;;;5.86;100.00;102854.97;6084310;19;20018;-72
2024/02/20 05:35:53;;;;;;;20.88;4.60;;;;;;;5.83;100.00;102855.81;6085532;19;20093;-72
2024/02/20 05:37:59;;;;;;;13.38;3.60;;;;;;;5.79;100.00;102858.38;6085912;19;20378;-71
2024/02/20 05:40:04;;;;;;;18.92;4.18;;;;;;;5.83;100.00;102854.94;6084356;19;20573;-72
2024/02/20 05:42:10;;;;;;;11.40;3.72;;;;;;;5.82;100.00;102858.41;6084184;19;20345;-71
2024/02/20 05:44:15;;;;;;;12.68;4.13;;;;;;;5.85;100.00;102858.47;6087285;19;20417;-73
2024/02/20 05:46:19;;;;;;;8.82;3.67;;;;;;;5.88;100.00;102861.09;6086124;19;20469;-71
2024/02/20 05:48:27;;;;;;;;;;;;;;;5.91;100.00;102866.34;6077237;19;20418;-72
2024/02/20 05:50:33;;;;;;;13.80;3.35;;;;;;;5.90;100.00;102862.00;6085704;19;19918;-72
2024/02/20 05:52:38;;;;;;;17.38;4.47;;;;;;;5.92;100.00;102874.22;6085759;19;20347;-70
2024/02/20 05:54:43;;;;;;;14.07;3.55;;;;;;;5.94;100.00;102872.50;6085553;19;22031;-72
2024/02/20 05:56:48;;;;;;;16.70;4.47;;;;;;;5.94;100.00;102864.66;6087026;19;20007;-73
2024/02/20 05:58:54;;;;;;;17.00;5.35;;;;;;;6.00;100.00;102863.84;6084051;19;20015;-71
2024/02/20 06:00:59;;;;;;;15.80;4.13;;;;;;;5.97;100.00;102866.44;6082272;19;20407;-71
2024/02/20 06:03:05;;;;;;;10.95;3.60;;;;;;;5.94;100.00;102869.03;6083845;19;20007;-72
2024/02/20 06:05:13;;;;;;;14.23;3.78;;;;;;;5.93;100.00;102875.06;6083447;19;20013;-71
2024/02/20 06:07:20;;;;;;;15.15;4.32;;;;;;;5.91;100.00;102868.97;6084516;19;20003;-71
2024/02/20 06:09:25;;;;;;;15.02;4.15;;;;;;;5.91;100.00;102882.88;6086439;19;20022;-71
2024/02/20 06:11:30;;;;;;;17.25;4.78;;;;;;;5.91;100.00;102874.19;6086936;19;20010;-72
2024/02/20 06:13:35;;;;;;;15.27;5.15;;;;;;;5.91;100.00;102874.19;6084345;19;20358;-71
2024/02/20 06:15:40;;;;;;;13.05;4.00;;;;;;;5.94;100.00;102869.03;6084938;19;20013;-71
2024/02/20 06:17:48;;;;;;;11.38;3.72;;;;;;;5.94;100.00;102864.66;6086717;19;20013;-71
2024/02/20 06:19:57;;;;;;;18.85;5.32;;;;;;;5.90;100.00;102864.59;6085808;19;20039;-71
2024/02/20 06:22:06;;;;;;;18.73;4.55;;;;;;;5.93;100.00;102862.03;6084953;19;20007;-72
2024/02/20 06:24:11;;;;;;;15.35;3.55;;;;;;;5.95;100.00;102849.91;6080236;19;20114;-73
2024/02/20 06:26:19;;;;;;;14.15;4.20;;;;;;;5.87;100.00;102860.22;6084217;19;20276;-73
2024/02/20 06:28:28;;;;;;;14.13;4.30;;;;;;;5.89;100.00;102861.09;6083539;19;20043;-72
2024/02/20 06:30:33;;;;;;;22.20;5.03;;;;;;;5.86;100.00;102865.41;6087089;19;20028;-71
2024/02/20 06:32:38;;;;;;;15.35;4.70;;;;;;;5.89;100.00;102858.50;6087322;19;20007;-71
2024/02/20 06:34:44;;;;;;;18.60;4.80;;;;;;;5.87;100.00;102855.00;6082762;19;20038;-74
2024/02/20 06:36:49;;;;;;;9.70;4.53;;;;;;;5.86;100.00;102853.25;6082550;19;20500;-72
2024/02/20 06:38:57;;;;;;;18.55;4.35;;;;;;;5.88;100.00;102851.53;6083684;19;20468;-71
2024/02/20 06:41:04;;;;;;;8.50;3.83;;;;;;;5.91;100.00;102848.94;6083178;19;20130;-71
2024/02/20 06:43:09;;;;;;;10.57;3.13;;;;;;;5.86;100.00;102853.25;6085264;19;22624;-70
2024/02/20 06:45:14;;;;;;;10.38;4.18;;;;;;;5.88;100.00;102853.28;6082606;19;20010;-71
2024/02/20 06:47:20;;;;;;;8.77;4.57;;;;;;;5.89;100.00;102852.41;6079040;19;20041;-70
2024/02/20 06:49:28;;;;;;;20.98;5.88;;;;;;;5.86;100.00;102854.97;6080217;19;20010;-71
2024/02/20 06:51:33;;;;;;;9.52;4.10;;;;;;;5.84;100.00;102864.50;6084383;19;22541;-72
2024/02/20 06:53:38;;;;;;;16.95;5.07;;;;;;;5.83;100.00;102862.78;6081576;19;20534;-71
2024/02/20 06:55:46;;;;;;;16.85;4.55;;;;;;;5.83;100.00;102853.22;6081072;19;20754;-71
2024/02/20 06:57:54;;;;;;;17.10;4.47;;;;;;;5.80;100.00;102850.56;6083805;19;20006;-71
2024/02/20 06:59:59;;;;;;;11.05;3.35;;;;;;;5.77;100.00;102847.94;6083732;19;20519;-71
2024/02/20 07:02:04;;;;;;;15.15;4.70;;;;;;;5.77;100.00;102849.66;6082882;19;20327;-74
2024/02/20 07:04:13;;;;;;;14.55;3.75;;;;;;;5.75;100.00;102854.00;6083084;19;20015;-71
2024/02/20 07:06:19;;;;;;;13.25;4.07;;;;;;;5.78;100.00;102856.63;6083364;19;20014;-72
2024/02/20 07:08:27;;;;;;;14.13;3.60;;;;;;;5.72;100.00;102850.47;6078939;19;20046;-72
2024/02/20 07:10:33;;;;;;;13.27;4.30;;;;;;;5.75;100.00;102847.03;6084759;19;20676;-75
2024/02/20 07:12:41;;;;;;;12.98;5.15;;;;;;;5.72;100.00;102853.09;6082896;19;20002;-74
2024/02/20 07:14:46;;;;;;;20.50;4.90;;;;;;;5.77;100.00;102844.44;6082254;19;20011;-74
2024/02/20 07:16:51;;;;;;;15.57;4.63;;;;;;;5.77;100.00;102842.72;6083940;19;20413;-76
2024/02/20 07:18:56;;;;;;;13.95;3.90;;;;;;;5.78;100.00;102844.44;6085230;19;20014;-74
2024/02/20 07:21:03;;;;;;;17.90;5.10;;;;;;;5.83;100.00;102854.94;6079133;19;20111;-73
2024/02/20 07:23:08;;;;;;;20.45;4.82;;;;;;;5.82;100.00;102848.88;6082197;19;20003;-73
2024/02/20 07:25:14;;;;;;;11.50;5.35;;;;;;;5.87;100.00;102851.50;6081321;19;20035;-74
2024/02/20 07:27:19;;;;;;;10.98;3.92;;;;;;;5.89;100.00;102847.19;6082462;19;20035;-73
2024/02/20 07:29:27;;;;;;;15.98;3.75;;;;;;;5.96;100.00;102849.03;6085246;19;20451;-72
2024/02/20 07:31:33;;;;;;;16.35;4.72;;;;;;;6.04;100.00;102842.16;6083516;19;20023;-71
2024/02/20 07:33:40;;;;;;;11.43;3.97;;;;;;;6.05;100.00;102845.66;6083519;19;20003;-74
2024/02/20 07:35:52;;;;;;;21.27;4.75;;;;;;;6.13;100.00;102838.75;6085105;19;20013;-73
2024/02/20 07:37:57;;;;;;;18.33;4.43;;;;;;;6.14;100.00;102841.41;6085166;19;20070;-73
2024/02/20 07:40:02;;;;;;;14.35;4.20;;;;;;;6.14;100.00;102841.41;6088513;19;20011;-74
2024/02/20 07:42:08;;;;;;;15.82;4.20;;;;;;;6.20;100.00;102848.41;6089087;19;20082;-73
2024/02/20 07:44:13;;;;;;;13.40;4.40;;;;;;;6.22;100.00;102844.09;6085397;19;20009;-72
2024/02/20 07:46:23;;;;;;;17.98;4.35;;;;;;;6.32;100.00;102834.63;6087933;19;20014;-74
2024/02/20 07:48:28;;;;;;;19.38;5.63;;;;;;;6.45;100.00;102846.03;6083844;19;20074;-74
2024/02/20 07:50:33;;;;;;;22.92;6.25;;;;;;;6.49;100.00;102851.31;6087557;19;20082;-73
2024/02/20 07:52:38;;;;;;;20.23;5.65;;;;;;;6.56;100.00;102847.88;6088021;19;20462;-74
2024/02/20 07:54:44;;;;;;;14.60;4.93;;;;;;;6.63;100.00;102850.53;6088966;19;20011;-72
2024/02/20 07:56:47;;;;;;;17.52;4.90;;;;;;;6.67;100.00;102852.31;6088566;19;20003;-72
2024/02/20 07:58:52;;;;;;;18.08;5.82;;;;;;;6.70;100.00;102853.22;6089136;19;20036;-73
2024/02/20 08:00:57;;;;;;;30.10;7.68;;;;;;;6.74;100.00;102859.31;6089515;19;20073;-73
2024/02/20 08:03:06;;;;;;;15.52;5.95;;;;;;;6.75;100.00;102856.75;6088741;19;20015;-74
2024/02/20 08:05:13;;;;;;;17.10;5.30;;;;;;;6.78;100.00;102851.53;6088342;19;20019;-72
2024/02/20 08:07:18;;;;;;;17.80;5.78;;;;;;;6.78;100.00;102856.75;6090407;19;20734;-71
2024/02/20 08:09:26;;;;;;;19.08;5.70;;;;;;;6.81;100.00;102858.53;6089946;19;20414;-74
2024/02/20 08:11:34;;;;;;;18.02;5.47;;;;;;;6.88;100.00;102857.72;6089916;19;20013;-74
2024/02/20 08:13:43;;;;;;;15.70;5.47;;;;;;;6.89;100.00;102849.00;6087954;19;20113;-74
2024/02/20 08:15:48;;;;;;;11.18;4.22;;;;;;;6.87;100.00;102848.09;6085794;19;20010;-72
2024/02/20 08:17:53;;;;;;;27.00;5.80;;;;;;;6.96;100.00;102844.69;6088467;19;20006;-73
2024/02/20 08:20:01;;;;;;;17.27;5.00;;;;;;;6.97;100.00;102842.06;6089523;19;20010;-72
2024/02/20 08:22:09;;;;;;;12.35;3.88;;;;;;;7.03;100.00;102842.13;6088025;19;20082;-75
2024/02/20 08:24:16;;;;;;;22.65;5.68;;;;;;;7.06;100.00;102837.78;6086398;19;20082;-73
2024/02/20 08:26:22;;;;;;;16.42;5.43;;;;;;;7.14;100.00;102841.34;6086093;19;20074;-73
2024/02/20 08:28:27;;;;;;;20.10;5.22;;;;;;;7.19;100.00;102842.25;6088679;19;20011;-73
2024/02/20 08:30:33;;;;;;;17.05;4.10;;;;;;;7.25;100.00;102834.41;6084359;19;20050;-72
2024/02/20 08:32:35;;;;;;;17.40;4.35;;;;;;;7.28;100.00;102844.88;6088155;19;20010;-73
2024/02/20 08:34:40;;;;;;;;;;;;;;;7.31;100.00;102841.41;6085730;19;20425;-71
2024/02/20 08:36:48;;;;;;;19.40;4.82;;;;;;;7.35;100.00;102846.69;6088709;19;19943;-71
2024/02/20 08:38:53;;;;;;;12.85;3.65;;;;;;;7.45;100.00;102844.97;6086395;19;20078;-71
2024/02/20 08:40:58;;;;;;;9.85;4.22;;;;;;;7.45;100.00;102839.72;6087873;19;20503;-73
2024/02/20 08:43:03;;;;;;;13.88;4.90;;;;;;;7.48;100.00;102835.41;6088550;19;20010;-72
2024/02/20 08:45:08;;;;;;;19.23;4.10;;;;;;;7.53;100.00;102839.75;6086542;19;20018;-74
2024/02/20 08:47:13;;;;;;;21.00;5.40;;;;;;;7.55;100.00;102838.03;6087525;19;20023;-75
2024/02/20 08:49:18;;;;;;;16.17;4.68;;;;;;;7.59;100.00;102839.81;6086836;19;20050;-73
2024/02/20 08:51:24;;;;;;;16.50;3.90;;;;;;;7.59;100.00;102838.06;6084110;19;20011;-72
2024/02/20 08:53:34;;;;;;;20.15;5.85;;;;;;;7.63;100.00;102829.34;6080204;19;20033;-73
2024/02/20 08:55:40;;;;;;;13.23;4.50;;;;;;;7.67;100.00;102831.13;6085534;19;20015;-73
2024/02/20 08:57:46;;;;;;;22.02;5.55;;;;;;;7.70;100.00;102832.88;6084847;19;20011;-73
2024/02/20 08:59:53;;;;;;;21.00;5.93;;;;;;;7.67;100.00;102831.13;6086332;19;20003;-72
2024/02/20 09:01:58;;;;;;;13.10;4.90;;;;;;;7.73;100.00;102834.63;6088001;19;19999;-75
2024/02/20 09:04:04;;;;;;;16.33;5.53;;;;;;;7.77;100.00;102831.16;6086218;19;20464;-75
2024/02/20 09:06:10;;;;;;;14.82;5.65;;;;;;;7.78;100.00;102832.91;6086982;19;20003;-75
2024/02/20 09:08:18;;;;;;;18.25;5.25;;;;;;;7.81;100.00;102828.53;6085660;19;20018;-75
2024/02/20 09:10:26;;;;;;;21.50;7.00;;;;;;;7.85;100.00;102829.44;6085084;19;20512;-73
2024/02/20 09:12:31;;;;;;;19.38;5.47;;;;;;;7.94;100.00;102825.97;6086906;19;20451;-72
2024/02/20 09:14:36;;;;;;;16.55;5.50;;;;;;;7.96;100.00;102827.72;6088160;19;20010;-72
2024/02/20 09:16:39;;;;;;;19.17;5.85;;;;;;;7.98;100.00;102830.31;6086759;19;20002;-73
2024/02/20 09:18:45;;;;;;;18.20;4.63;;;;;;;8.03;100.00;102833.81;6086205;19;20011;-72
2024/02/20 09:20:50;;;;;;;15.52;5.13;;;;;;;8.04;100.00;102827.72;6084958;19;20014;-72
2024/02/20 09:22:56;;;;;;;14.13;4.82;;;;;;;8.15;100.00;102828.63;6081106;19;20010;-73
2024/02/20 09:25:01;;;;;;;16.33;5.72;;;;;;;8.17;100.00;102823.41;6085035;19;20028;-75
2024/02/20 09:27:09;;;;;;;18.52;4.82;;;;;;;8.17;100.00;102829.50;6084632;19;20950;-74
2024/02/20 09:29:14;;;;;;;11.48;3.78;;;;;;;8.23;100.00;102818.16;6087736;19;20010;-72
2024/02/20 09:31:19;;;;;;;11.98;4.95;;;;;;;8.24;100.00;102807.69;6084704;19;20039;-75
2024/02/20 09:33:22;;;;;;;26.92;5.25;;;;;;;8.30;100.00;102807.69;6085516;19;20023;-73
2024/02/20 09:35:27;;;;;;;18.70;4.45;;;;;;;8.33;100.00;102810.31;6087800;19;20025;-72
2024/02/20 09:37:33;;;;;;;26.65;4.88;;;;;;;8.36;100.00;102807.69;6083729;19;20014;-73
2024/02/20 09:39:38;;;;;;;18.15;5.22;;;;;;;8.41;100.00;102805.09;6085918;19;20103;-73